Time;durP1;ratioP1;P1;durP2;ratioP2;P2;SDS_P1;SDS_P2;PMS_P1;PMS_P2;Temp;Humidity;BMP_temperature;BMP_pressure;BME280_temperature;BME280_humidity;BME280_pressure;Samples;Min_cycle;Max_cycle;Signal;HPM_P1;HPM_P2
2023/11/10 00:02:45;;;;;;;1.52;0.90;;;;;;;7.59;100.00;99466.56;6227959;28;20058;-76
2023/11/10 00:05:48;;;;;;;2.22;1.42;;;;;;;7.57;100.00;99465.78;6228307;28;20042;-75
2023/11/10 00:08:50;;;;;;;3.38;0.98;;;;;;;7.59;100.00;99467.38;6227810;28;20054;-75
2023/11/10 00:11:52;;;;;;;2.38;1.00;;;;;;;7.63;100.00;99457.59;6227999;28;20057;-76
2023/11/10 00:14:53;;;;;;;3.17;0.90;;;;;;;7.58;100.00;99452.63;6227664;28;20347;-76
2023/11/10 00:17:56;;;;;;;2.85;1.45;;;;;;;7.61;100.00;99444.59;6228063;28;20053;-76
2023/11/10 00:20:59;;;;;;;3.17;1.17;;;;;;;7.55;100.00;99438.91;6227611;28;20453;-75
2023/11/10 00:24:03;;;;;;;2.75;1.30;;;;;;;7.47;100.00;99439.38;6227563;28;20177;-75
2023/11/10 00:27:05;;;;;;;1.88;1.17;;;;;;;7.46;100.00;99431.66;6227867;28;20133;-76
2023/11/10 00:30:07;;;;;;;2.47;1.25;;;;;;;7.36;100.00;99426.97;6227295;28;20053;-77
2023/11/10 00:33:09;;;;;;;1.58;1.10;;;;;;;7.34;100.00;99425.38;6227956;28;20059;-76
2023/11/10 00:36:13;;;;;;;1.90;1.15;;;;;;;7.28;100.00;99428.38;6227849;28;20053;-77
2023/11/10 00:39:19;;;;;;;1.63;0.75;;;;;;;7.27;100.00;99440.59;6227494;28;20056;-76
2023/11/10 00:42:21;;;;;;;2.03;1.20;;;;;;;7.15;100.00;99435.28;6227320;28;20046;-76
2023/11/10 00:45:22;;;;;;;2.05;1.13;;;;;;;7.09;100.00;99431.28;6227633;28;20052;-77
2023/11/10 00:48:23;;;;;;;2.33;1.10;;;;;;;7.07;100.00;99454.84;6227304;28;20058;-77
2023/11/10 00:51:26;;;;;;;0.98;0.77;;;;;;;6.99;100.00;99448.41;6226545;28;20362;-77
2023/11/10 00:54:27;;;;;;;3.70;1.60;;;;;;;6.94;100.00;99458.28;6227214;28;20072;-77
2023/11/10 00:57:29;;;;;;;2.63;1.42;;;;;;;6.93;100.00;99462.66;6227060;28;20050;-77
2023/11/10 01:00:30;;;;;;;1.63;1.00;;;;;;;6.98;100.00;99458.00;6227004;28;20046;-76
2023/11/10 01:03:32;;;;;;;1.75;1.20;;;;;;;6.99;100.00;99458.84;6226967;28;20370;-77
2023/11/10 01:06:34;;;;;;;1.70;1.27;;;;;;;7.05;100.00;99463.72;6226850;28;20057;-77
2023/11/10 01:09:36;;;;;;;1.50;1.23;;;;;;;7.01;100.00;99465.69;6226608;28;20072;-77
2023/11/10 01:12:37;;;;;;;3.92;1.38;;;;;;;7.02;100.00;99456.91;6226801;28;20081;-76
2023/11/10 01:15:39;;;;;;;1.95;1.35;;;;;;;7.08;100.00;99456.53;6226656;28;20053;-77
2023/11/10 01:18:41;;;;;;;3.97;1.30;;;;;;;7.03;100.00;99448.13;6226615;28;20092;-77
2023/11/10 01:21:45;;;;;;;3.05;1.38;;;;;;;7.07;100.00;99448.78;6226326;28;20053;-77
2023/11/10 01:24:47;;;;;;;1.58;1.35;;;;;;;7.07;100.00;99439.19;6226452;28;20350;-76
2023/11/10 01:27:48;;;;;;;4.72;1.75;;;;;;;7.06;100.00;99437.50;6226569;28;20061;-76
2023/11/10 01:30:51;;;;;;;1.23;1.08;;;;;;;7.10;100.00;99444.22;6226113;28;20358;-77
2023/11/10 01:33:53;;;;;;;1.98;1.50;;;;;;;7.11;100.00;99437.22;6226316;28;20056;-76
2023/11/10 01:36:55;;;;;;;4.78;1.55;;;;;;;7.09;100.00;99434.72;6226099;28;20050;-77
2023/11/10 01:39:57;;;;;;;4.25;1.75;;;;;;;7.14;100.00;99441.44;6226074;28;20049;-76
2023/11/10 01:42:58;;;;;;;1.58;1.15;;;;;;;7.12;100.00;99429.28;6225997;28;20050;-76
2023/11/10 01:46:00;;;;;;;2.08;1.30;;;;;;;7.12;100.00;99431.06;6226301;28;20057;-76
2023/11/10 01:49:02;;;;;;;1.85;1.30;;;;;;;7.19;100.00;99436.78;6225978;28;20358;-76
2023/11/10 01:52:06;;;;;;;8.70;1.23;;;;;;;7.18;100.00;99430.72;6225809;28;20453;-76
2023/11/10 01:55:09;;;;;;;7.13;1.42;;;;;;;7.22;100.00;99427.00;6226025;28;20061;-76
2023/11/10 01:58:11;;;;;;;3.60;1.20;;;;;;;7.26;100.00;99423.22;6225567;28;20050;-76
2023/11/10 02:01:13;;;;;;;3.58;1.08;;;;;;;7.26;100.00;99423.22;6225459;28;20042;-77
2023/11/10 02:04:16;;;;;;;2.10;0.98;;;;;;;7.18;100.00;99425.50;6229628;28;20354;-76
2023/11/10 02:07:19;;;;;;;3.13;1.02;;;;;;;7.12;100.00;99423.22;6230585;28;20053;-76
2023/11/10 02:10:20;;;;;;;1.23;0.85;;;;;;;7.01;100.00;99421.28;6242777;28;20045;-76
2023/11/10 02:13:22;;;;;;;1.67;1.00;;;;;;;6.98;100.00;99426.66;6233390;28;20060;-76
2023/11/10 02:16:23;;;;;;;1.23;1.10;;;;;;;6.98;100.00;99421.44;6230047;28;20060;-76
2023/11/10 02:19:25;;;;;;;4.55;1.70;;;;;;;7.00;100.00;99432.66;6230573;28;20042;-76
2023/11/10 02:22:27;;;;;;;2.65;1.20;;;;;;;7.05;100.00;99425.38;6236003;28;20053;-77
2023/11/10 02:25:30;;;;;;;2.47;1.67;;;;;;;7.12;100.00;99431.91;6250020;28;20053;-75
2023/11/10 02:28:33;;;;;;;2.03;1.17;;;;;;;7.14;100.00;99428.38;6243029;28;20054;-76
2023/11/10 02:31:34;;;;;;;2.03;1.20;;;;;;;7.14;100.00;99426.59;6244042;28;20139;-75
2023/11/10 02:34:36;;;;;;;4.05;1.27;;;;;;;7.12;100.00;99423.22;6249967;28;20045;-75
2023/11/10 02:37:38;;;;;;;2.80;1.40;;;;;;;7.17;100.00;99422.94;6238008;28;20378;-76
2023/11/10 02:40:40;;;;;;;5.18;1.73;;;;;;;7.16;100.00;99426.50;6242721;28;20077;-76
2023/11/10 02:43:42;;;;;;;1.67;1.02;;;;;;;7.19;100.00;99410.66;6240673;28;20050;-76
2023/11/10 02:46:43;;;;;;;5.07;0.90;;;;;;;7.17;100.00;99409.88;6230221;28;20069;-76
2023/11/10 02:49:44;;;;;;;8.25;1.10;;;;;;;7.18;100.00;99411.59;6229903;28;20054;-76
2023/11/10 02:52:46;;;;;;;4.15;1.08;;;;;;;7.18;100.00;99415.03;6229832;28;20050;-75
2023/11/10 02:55:48;;;;;;;2.20;0.80;;;;;;;7.16;100.00;99403.00;6230001;28;20053;-76
2023/11/10 02:58:50;;;;;;;1.30;0.90;;;;;;;7.09;100.00;99398.16;6230007;28;20057;-75
2023/11/10 03:01:53;;;;;;;1.45;0.93;;;;;;;7.12;100.00;99394.50;6229445;28;20085;-76
2023/11/10 03:04:54;;;;;;;1.08;0.70;;;;;;;7.06;100.00;99387.03;6229924;28;20050;-76
2023/11/10 03:07:55;;;;;;;0.93;0.70;;;;;;;7.00;100.00;99385.66;6229476;28;20054;-75
2023/11/10 03:10:58;;;;;;;5.70;1.05;;;;;;;7.06;100.00;99376.59;6229678;28;20046;-75
2023/11/10 03:13:59;;;;;;;3.80;0.93;;;;;;;7.07;100.00;99381.72;6228988;28;20050;-76
2023/11/10 03:17:01;;;;;;;5.57;1.25;;;;;;;7.03;100.00;99377.59;6229678;28;20058;-75
2023/11/10 03:20:03;;;;;;;1.08;0.70;;;;;;;7.00;100.00;99380.41;6229324;28;20042;-75
2023/11/10 03:23:04;;;;;;;3.53;1.63;;;;;;;6.99;100.00;99376.09;6229107;28;20049;-75
2023/11/10 03:26:07;;;;;;;2.10;0.82;;;;;;;7.00;100.00;99379.59;6229435;28;20050;-75
2023/11/10 03:29:08;;;;;;;3.13;0.88;;;;;;;7.01;100.00;99378.66;6228965;28;20061;-75
2023/11/10 03:32:09;;;;;;;2.45;0.70;;;;;;;7.00;100.00;99374.38;6228889;28;20046;-75
2023/11/10 03:35:11;;;;;;;2.47;0.70;;;;;;;6.98;100.00;99377.03;6228944;28;20366;-75
2023/11/10 03:38:12;;;;;;;5.25;0.63;;;;;;;6.98;100.00;99381.44;6228081;28;20050;-75
2023/11/10 03:41:15;;;;;;;1.83;0.60;;;;;;;6.96;100.00;99389.38;6228551;28;20057;-75
2023/11/10 03:44:16;;;;;;;2.42;1.10;;;;;;;6.94;100.00;99391.22;6228615;28;20358;-74
2023/11/10 03:47:18;;;;;;;1.23;0.60;;;;;;;6.93;100.00;99389.53;6228637;28;20054;-74
2023/11/10 03:50:19;;;;;;;0.73;0.60;;;;;;;6.89;100.00;99384.59;6228641;28;20042;-74
2023/11/10 03:53:21;;;;;;;1.67;0.68;;;;;;;6.91;100.00;99383.59;6228397;28;20053;-74
2023/11/10 03:56:24;;;;;;;0.73;0.60;;;;;;;6.98;100.00;99386.66;6228709;28;20049;-75
2023/11/10 03:59:26;;;;;;;3.63;0.70;;;;;;;7.02;100.00;99382.94;6227605;28;20046;-74
2023/11/10 04:02:27;;;;;;;10.98;0.65;;;;;;;6.99;100.00;99388.34;6228221;28;20085;-74
2023/11/10 04:05:29;;;;;;;5.95;0.90;;;;;;;6.93;100.00;99381.72;6228033;28;20073;-74
2023/11/10 04:08:30;;;;;;;2.60;0.57;;;;;;;6.89;100.00;99382.81;6227781;28;20056;-74
2023/11/10 04:11:33;;;;;;;2.20;0.52;;;;;;;6.91;100.00;99380.97;6228050;28;20042;-73
2023/11/10 04:14:35;;;;;;;3.33;0.82;;;;;;;6.93;100.00;99384.31;6228274;28;20054;-74
2023/11/10 04:17:36;;;;;;;5.65;0.68;;;;;;;6.91;100.00;99387.97;6228028;28;20057;-74
2023/11/10 04:20:38;;;;;;;1.70;0.60;;;;;;;6.85;100.00;99387.38;6227702;28;20042;-73
2023/11/10 04:23:41;;;;;;;1.58;0.57;;;;;;;6.86;100.00;99385.63;6227907;28;20061;-74
2023/11/10 04:26:43;;;;;;;0.50;0.50;;;;;;;6.88;100.00;99390.75;6227011;28;20060;-74
2023/11/10 04:29:47;;;;;;;4.15;0.95;;;;;;;6.88;100.00;99386.38;6227571;28;20041;-73
2023/11/10 04:32:48;;;;;;;12.45;0.82;;;;;;;6.82;100.00;99384.13;6227308;28;20413;-74
2023/11/10 04:35:50;;;;;;;0.85;0.68;;;;;;;6.79;100.00;99381.69;6227820;28;20050;-74
2023/11/10 04:38:52;;;;;;;11.25;1.60;;;;;;;6.79;100.00;99382.53;6227334;28;20050;-73
2023/11/10 04:41:55;;;;;;;3.22;0.82;;;;;;;6.79;100.00;99379.09;6227430;28;20153;-73
2023/11/10 04:44:56;;;;;;;2.10;0.40;;;;;;;6.83;100.00;99385.81;6227472;28;20096;-73
2023/11/10 04:47:58;;;;;;;0.80;0.40;;;;;;;6.89;100.00;99382.00;6227238;28;20064;-76
2023/11/10 04:51:03;;;;;;;2.13;0.70;;;;;;;6.85;100.00;99384.78;6227272;28;20058;-76
2023/11/10 04:54:04;;;;;;;2.80;1.08;;;;;;;6.85;100.00;99379.56;6226993;28;20049;-73
2023/11/10 04:57:07;;;;;;;0.85;0.47;;;;;;;6.88;100.00;99378.53;6227368;28;20046;-75
2023/11/10 05:00:11;;;;;;;2.22;0.63;;;;;;;6.91;100.00;99380.16;6226808;28;20520;-74
2023/11/10 05:03:12;;;;;;;0.63;0.30;;;;;;;6.93;100.00;99384.31;6227079;28;20050;-74
2023/11/10 05:06:16;;;;;;;5.28;0.50;;;;;;;6.97;100.00;99375.38;6226624;28;20145;-74
2023/11/10 05:09:22;;;;;;;1.65;0.60;;;;;;;6.99;100.00;99367.44;6227010;28;20045;-73
2023/11/10 05:12:27;;;;;;;0.50;0.35;;;;;;;6.98;100.00;99374.44;6226442;28;20053;-74
2023/11/10 05:15:29;;;;;;;4.18;0.50;;;;;;;7.00;100.00;99366.53;6226832;28;20180;-76
2023/11/10 05:18:31;;;;;;;6.65;0.60;;;;;;;7.04;100.00;99370.59;6226617;28;20054;-74
2023/11/10 05:21:32;;;;;;;2.67;0.40;;;;;;;7.07;100.00;99368.66;6226570;28;20053;-74
2023/11/10 05:24:33;;;;;;;3.17;1.20;;;;;;;6.99;100.00;99376.09;6226525;28;20350;-74
2023/11/10 05:27:36;;;;;;;3.63;0.47;;;;;;;7.01;100.00;99376.88;6226517;28;20285;-74
2023/11/10 05:30:37;;;;;;;1.42;0.70;;;;;;;6.98;100.00;99371.81;6250715;28;20052;-74
2023/11/10 05:33:39;;;;;;;1.02;0.57;;;;;;;6.98;100.00;99381.44;6245765;28;20358;-74
2023/11/10 05:36:40;;;;;;;2.03;0.50;;;;;;;6.92;100.00;99376.59;6226053;28;20056;-74
2023/11/10 05:39:42;;;;;;;0.90;0.50;;;;;;;6.96;100.00;99378.09;6243048;28;20049;-76
2023/11/10 05:42:45;;;;;;;0.38;0.38;;;;;;;6.95;100.00;99384.22;6241091;28;20037;-75
2023/11/10 05:45:46;;;;;;;0.57;0.50;;;;;;;6.99;100.00;99378.72;6237649;28;20049;-75
2023/11/10 05:48:47;;;;;;;1.67;0.60;;;;;;;6.99;100.00;99386.56;6237971;28;20045;-75
2023/11/10 05:51:50;;;;;;;1.30;0.50;;;;;;;7.01;100.00;99381.25;6237634;28;20054;-76
2023/11/10 05:54:51;;;;;;;0.35;0.35;;;;;;;7.03;100.00;99384.59;6236312;28;20057;-76
2023/11/10 05:57:54;;;;;;;4.85;0.50;;;;;;;7.04;100.00;99387.13;6237051;28;20504;-76
2023/11/10 06:00:56;;;;;;;1.10;0.40;;;;;;;7.04;100.00;99384.53;6238784;28;20198;-74
2023/11/10 06:03:57;;;;;;;0.65;0.40;;;;;;;7.03;100.00;99384.59;6236477;28;20045;-76
2023/11/10 06:06:58;;;;;;;2.45;0.80;;;;;;;6.96;100.00;99391.16;6236109;28;20263;-75
2023/11/10 06:10:00;;;;;;;7.20;0.82;;;;;;;7.00;100.00;99382.19;6239108;28;20049;-76
2023/11/10 06:13:03;;;;;;;2.30;0.80;;;;;;;7.03;100.00;99387.22;6236499;28;20050;-76
2023/11/10 06:16:07;;;;;;;4.40;0.60;;;;;;;7.02;100.00;99382.94;6238168;28;20052;-76
2023/11/10 06:19:09;;;;;;;1.50;0.50;;;;;;;7.03;100.00;99393.28;6237475;28;20046;-76
2023/11/10 06:22:11;;;;;;;2.90;0.77;;;;;;;6.97;100.00;99392.81;6237081;28;20048;-76
2023/11/10 06:25:12;;;;;;;0.43;0.32;;;;;;;6.95;100.00;99394.66;6238124;28;20053;-76
2023/11/10 06:28:15;;;;;;;0.82;0.50;;;;;;;6.94;100.00;99393.00;6236550;28;20068;-75
2023/11/10 06:31:17;;;;;;;1.65;0.80;;;;;;;6.96;100.00;99396.38;6225340;28;20387;-76
2023/11/10 06:34:18;;;;;;;5.75;1.00;;;;;;;6.99;100.00;99397.00;6225671;28;20050;-76
2023/11/10 06:37:19;;;;;;;1.25;0.80;;;;;;;6.94;100.00;99396.44;6225546;28;20061;-76
2023/11/10 06:40:21;;;;;;;1.13;0.60;;;;;;;6.98;100.00;99391.88;6225318;28;20078;-76
2023/11/10 06:43:23;;;;;;;1.00;0.50;;;;;;;6.96;100.00;99398.97;6225431;28;20054;-76
2023/11/10 06:46:26;;;;;;;0.98;0.57;;;;;;;6.94;100.00;99399.06;6225315;28;20049;-76
2023/11/10 06:49:28;;;;;;;4.13;0.77;;;;;;;6.97;100.00;99400.66;6227983;28;20046;-76
2023/11/10 06:52:30;;;;;;;0.60;0.57;;;;;;;6.94;100.00;99400.81;6229776;28;20050;-76
2023/11/10 06:55:31;;;;;;;1.50;0.88;;;;;;;6.97;100.00;99398.03;6230194;28;20089;-76
2023/11/10 06:58:34;;;;;;;0.85;0.68;;;;;;;6.94;100.00;99398.22;6229824;28;20057;-76
2023/11/10 07:01:36;;;;;;;4.13;0.70;;;;;;;6.97;100.00;99395.44;6229558;28;20350;-76
2023/11/10 07:04:37;;;;;;;1.00;0.47;;;;;;;7.01;100.00;99399.53;6229825;28;20470;-76
2023/11/10 07:07:38;;;;;;;2.20;0.70;;;;;;;7.06;100.00;99402.72;6229502;28;20069;-76
2023/11/10 07:10:44;;;;;;;1.52;0.75;;;;;;;7.04;100.00;99388.88;6229609;28;20046;-76
2023/11/10 07:13:47;;;;;;;3.22;0.73;;;;;;;7.11;100.00;99393.66;6229412;28;20446;-75
2023/11/10 07:16:49;;;;;;;2.47;0.70;;;;;;;7.16;100.00;99393.38;6229128;28;20350;-76
2023/11/10 07:19:51;;;;;;;0.52;0.50;;;;;;;7.09;100.00;99403.38;6229219;28;20049;-75
2023/11/10 07:22:53;;;;;;;3.88;2.40;;;;;;;7.11;100.00;99398.88;6229248;28;20053;-76
2023/11/10 07:25:54;;;;;;;0.93;0.73;;;;;;;7.12;100.00;99395.31;6229300;28;20050;-76
2023/11/10 07:29:02;;;;;;;1.83;0.70;;;;;;;7.15;100.00;99404.75;6229239;28;20061;-75
2023/11/10 07:32:03;;;;;;;1.85;0.52;;;;;;;7.14;100.00;99407.47;6228887;28;20057;-76
2023/11/10 07:35:05;;;;;;;1.63;0.60;;;;;;;7.18;100.00;99406.38;6272849;22;20052;-75
2023/11/10 07:38:07;;;;;;;2.47;0.85;;;;;;;7.23;100.00;99407.75;6241276;28;20465;-76
2023/11/10 07:41:08;;;;;;;7.80;0.90;;;;;;;7.23;100.00;99417.38;6241851;28;20056;-76
2023/11/10 07:44:12;;;;;;;0.77;0.77;;;;;;;7.22;100.00;99423.50;6241758;28;20524;-76
2023/11/10 07:47:13;;;;;;;1.15;0.90;;;;;;;7.26;100.00;99411.94;6241045;28;20053;-76
2023/11/10 07:50:15;;;;;;;3.78;0.52;;;;;;;7.31;100.00;99417.72;6239071;28;20075;-76
2023/11/10 07:53:17;;;;;;;2.40;0.70;;;;;;;7.34;100.00;99421.00;6239121;28;20046;-77
2023/11/10 07:56:20;;;;;;;3.13;0.70;;;;;;;7.37;100.00;99419.97;6241601;28;20050;-78
2023/11/10 07:59:22;;;;;;;3.92;1.13;;;;;;;7.38;100.00;99419.88;6247317;28;20053;-78
2023/11/10 08:02:24;;;;;;;1.67;0.65;;;;;;;7.40;100.00;99426.78;6242928;28;20050;-79
2023/11/10 08:05:26;;;;;;;1.60;1.00;;;;;;;7.44;100.00;99423.88;6240277;28;20054;-76
2023/11/10 08:08:27;;;;;;;3.35;0.80;;;;;;;7.51;100.00;99424.34;6241794;28;20056;-76
2023/11/10 08:11:29;;;;;;;2.53;0.60;;;;;;;7.51;100.00;99430.41;6240825;28;20464;-77
2023/11/10 08:14:31;;;;;;;0.95;0.70;;;;;;;7.53;100.00;99431.16;6247497;28;20056;-77
2023/11/10 08:17:33;;;;;;;1.85;0.65;;;;;;;7.47;100.00;99430.69;6245218;28;20345;-79
2023/11/10 08:20:34;;;;;;;1.55;0.60;;;;;;;7.47;100.00;99433.31;6245288;28;20057;-79
2023/11/10 08:23:36;;;;;;;2.13;0.50;;;;;;;7.49;100.00;99424.44;6245777;28;20358;-78
2023/11/10 08:26:38;;;;;;;0.80;0.60;;;;;;;7.52;100.00;99424.25;6236563;28;20053;-79
2023/11/10 08:29:41;;;;;;;2.83;1.00;;;;;;;7.53;100.00;99436.38;6252299;28;20045;-79
2023/11/10 08:32:42;;;;;;;1.10;0.85;;;;;;;7.54;100.00;99434.59;6251773;28;20452;-79
2023/11/10 08:35:44;;;;;;;4.47;0.82;;;;;;;7.56;100.00;99440.59;6251928;28;20056;-79
2023/11/10 08:38:45;;;;;;;1.83;1.10;;;;;;;7.52;100.00;99428.63;6252013;28;20053;-78
2023/11/10 08:41:48;;;;;;;2.25;0.77;;;;;;;7.52;100.00;99439.94;6251679;28;20046;-79
2023/11/10 08:44:51;;;;;;;3.53;0.93;;;;;;;7.53;100.00;99433.75;6251557;28;20080;-80
2023/11/10 08:47:52;;;;;;;3.83;0.98;;;;;;;7.57;100.00;99431.81;6249134;28;20049;-77
2023/11/10 08:50:55;;;;;;;4.55;1.38;;;;;;;7.59;100.00;99437.78;6240354;28;20049;-79
2023/11/10 08:53:57;;;;;;;2.05;0.80;;;;;;;7.69;100.00;99438.91;6242352;28;20056;-78
2023/11/10 08:56:59;;;;;;;2.22;0.98;;;;;;;7.65;100.00;99445.25;6251834;28;20056;-78
2023/11/10 09:00:02;;;;;;;1.02;0.85;;;;;;;7.68;100.00;99447.69;6251513;28;20057;-78
2023/11/10 09:03:03;;;;;;;4.25;0.82;;;;;;;7.72;100.00;99448.31;6251320;28;20053;-77
2023/11/10 09:06:05;;;;;;;2.05;1.35;;;;;;;7.74;100.00;99454.28;6250855;28;20046;-78
2023/11/10 09:09:08;;;;;;;5.88;1.55;;;;;;;7.75;100.00;99453.34;6250828;28;20388;-78
2023/11/10 09:12:09;;;;;;;1.95;0.95;;;;;;;7.77;100.00;99456.72;6248178;28;20038;-77
2023/11/10 09:15:14;;;;;;;1.85;1.27;;;;;;;7.78;100.00;99454.00;6246952;28;20056;-76
2023/11/10 09:18:15;;;;;;;4.03;1.70;;;;;;;7.79;100.00;99455.69;6242367;28;20389;-77
2023/11/10 09:21:17;;;;;;;4.57;1.30;;;;;;;7.77;100.00;99454.94;6246058;28;20060;-77
2023/11/10 09:24:18;;;;;;;2.78;1.27;;;;;;;7.80;100.00;99454.75;6247066;28;20056;-77
2023/11/10 09:27:21;;;;;;;5.40;1.27;;;;;;;7.79;100.00;99453.06;6237783;28;20438;-76
2023/11/10 09:30:25;;;;;;;2.35;1.35;;;;;;;7.91;100.00;99461.09;6250699;28;20128;-76
2023/11/10 09:33:27;;;;;;;2.47;1.50;;;;;;;7.91;100.00;99456.69;6250689;28;20442;-76
2023/11/10 09:36:28;;;;;;;1.95;1.20;;;;;;;7.92;100.00;99460.16;6250694;28;20056;-76
2023/11/10 09:39:30;;;;;;;2.90;1.63;;;;;;;7.95;100.00;99462.56;6250188;28;20053;-75
2023/11/10 09:42:31;;;;;;;5.75;2.08;;;;;;;7.97;100.00;99458.91;6248450;28;20457;-76
2023/11/10 09:45:36;;;;;;;1.83;1.08;;;;;;;8.00;100.00;99457.91;6250737;28;20049;-76
2023/11/10 09:48:38;;;;;;;5.13;1.10;;;;;;;8.00;100.00;99463.97;6250681;28;20056;-75
2023/11/10 09:51:41;;;;;;;2.45;1.38;;;;;;;8.05;100.00;99467.13;6250461;28;20052;-76
2023/11/10 09:54:45;;;;;;;1.70;1.15;;;;;;;8.08;100.00;99458.22;6250427;28;20054;-75
2023/11/10 09:57:49;;;;;;;2.78;1.20;;;;;;;8.10;100.00;99466.84;6250782;28;20054;-75
2023/11/10 10:00:53;;;;;;;3.75;1.23;;;;;;;8.12;100.00;99464.94;6250365;28;20057;-75
2023/11/10 10:03:54;;;;;;;2.78;1.00;;;;;;;8.16;100.00;99471.66;6250319;28;20049;-75
2023/11/10 10:06:57;;;;;;;4.13;1.52;;;;;;;8.20;100.00;99461.84;6250082;28;20060;-75
2023/11/10 10:09:58;;;;;;;1.67;0.98;;;;;;;8.27;100.00;99456.13;6250086;28;20362;-74
2023/11/10 10:13:01;;;;;;;3.13;1.13;;;;;;;8.27;100.00;99450.06;6249838;28;20168;-75
2023/11/10 10:16:11;;;;;;;2.97;1.20;;;;;;;8.32;100.00;99459.28;6250453;28;20060;-74
2023/11/10 10:19:21;;;;;;;2.38;1.10;;;;;;;8.43;100.00;99456.00;6250089;28;20054;-75
2023/11/10 10:22:26;;;;;;;5.18;1.58;;;;;;;8.37;100.00;99457.25;6250005;28;20052;-74
2023/11/10 10:25:27;;;;;;;1.85;1.13;;;;;;;8.57;100.00;99447.22;6254281;28;20430;-74
2023/11/10 10:28:29;;;;;;;4.68;1.17;;;;;;;8.68;100.00;99444.75;6255140;28;20049;-74
2023/11/10 10:31:32;;;;;;;2.72;1.27;;;;;;;8.72;100.00;99445.38;6254718;28;20057;-74
2023/11/10 10:34:34;;;;;;;5.25;1.52;;;;;;;8.84;100.00;99450.63;6254786;28;20136;-74
2023/11/10 10:37:39;;;;;;;5.90;1.42;;;;;;;8.81;100.00;99456.09;6254624;28;20057;-75
2023/11/10 10:40:41;;;;;;;2.08;1.48;;;;;;;8.71;100.00;99452.41;6255031;28;20152;-74
2023/11/10 10:43:43;;;;;;;5.45;1.67;;;;;;;8.67;100.00;99452.69;6254559;28;20049;-74
2023/11/10 10:46:48;;;;;;;3.95;1.45;;;;;;;8.61;100.00;99454.78;6254261;28;20054;-74
2023/11/10 10:49:51;;;;;;;3.58;1.45;;;;;;;8.54;100.00;99450.91;6254993;28;20061;-74
2023/11/10 10:52:55;;;;;;;4.05;1.48;;;;;;;8.58;100.00;99446.28;6254183;28;20046;-74
2023/11/10 10:55:58;;;;;;;3.15;1.10;;;;;;;8.56;100.00;99449.03;6254530;28;20475;-74
2023/11/10 10:58:59;;;;;;;3.05;1.33;;;;;;;8.51;100.00;99453.72;6254321;28;20053;-76
2023/11/10 11:02:04;;;;;;;2.63;1.40;;;;;;;8.53;100.00;99453.59;6254245;28;20084;-74
2023/11/10 11:05:16;;;;;;;4.40;1.33;;;;;;;8.48;100.00;99460.94;6254307;28;20061;-74
2023/11/10 11:08:34;;;;;;;2.70;1.05;;;;;;;8.55;100.00;99452.59;6253939;28;20072;-74
2023/11/10 11:11:52;;;;;;;6.13;1.33;;;;;;;8.61;100.00;99454.78;6253405;28;20046;-74
2023/11/10 11:15:00;;;;;;;3.28;1.10;;;;;;;8.60;100.00;99452.28;6253176;28;20295;-76
2023/11/10 11:18:30;;;;;;;3.03;0.90;;;;;;;8.65;100.00;99452.81;6253566;28;20049;-74
2023/11/10 11:21:32;;;;;;;2.88;1.20;;;;;;;8.60;100.00;99450.50;6253552;28;20053;-74
2023/11/10 11:24:34;;;;;;;3.08;1.05;;;;;;;8.60;100.00;99447.88;6250318;28;20073;-74
2023/11/10 11:27:37;;;;;;;5.35;0.95;;;;;;;8.60;100.00;99450.50;6241726;28;20137;-74
2023/11/10 11:30:41;;;;;;;2.40;1.10;;;;;;;8.65;100.00;99452.81;6248032;28;20075;-76
2023/11/10 11:33:47;;;;;;;1.85;1.10;;;;;;;8.68;100.00;99451.78;6245860;28;20366;-74
2023/11/10 11:36:49;;;;;;;2.83;1.08;;;;;;;8.72;100.00;99440.13;6249909;28;20507;-76
2023/11/10 11:39:53;;;;;;;7.00;1.20;;;;;;;8.80;100.00;99438.69;6253319;28;20060;-76
2023/11/10 11:42:54;;;;;;;2.70;1.00;;;;;;;8.92;100.00;99441.44;6248772;28;20524;-76
2023/11/10 11:45:56;;;;;;;3.75;1.23;;;;;;;8.91;100.00;99432.75;6253376;28;20057;-76
2023/11/10 11:49:01;;;;;;;1.33;0.70;;;;;;;8.92;100.00;99429.19;6249542;28;20041;-76
2023/11/10 11:52:04;;;;;;;1.08;0.90;;;;;;;8.92;100.00;99425.72;6246531;28;20503;-75
2023/11/10 11:55:06;;;;;;;1.45;0.80;;;;;;;8.84;100.00;99424.44;6242793;28;20346;-77
2023/11/10 11:58:08;;;;;;;3.08;0.80;;;;;;;8.87;100.00;99424.25;6243337;28;20053;-77
2023/11/10 12:01:09;;;;;;;3.30;0.82;;;;;;;8.95;100.00;99425.50;6246095;28;20480;-77
2023/11/10 12:04:12;;;;;;;5.85;1.40;;;;;;;9.03;100.00;99413.53;6246919;28;20077;-76
2023/11/10 12:07:14;;;;;;;1.70;0.80;;;;;;;9.10;100.00;99412.19;6243768;28;20053;-76
2023/11/10 12:10:15;;;;;;;2.28;0.90;;;;;;;9.22;100.00;99413.16;6252232;28;20100;-76
2023/11/10 12:13:19;;;;;;;3.03;0.75;;;;;;;9.37;100.00;99413.84;6252326;28;20049;-76
2023/11/10 12:16:22;;;;;;;2.90;1.00;;;;;;;9.43;100.00;99404.72;6252270;28;20152;-77
2023/11/10 12:19:26;;;;;;;2.92;0.90;;;;;;;9.49;100.00;99405.09;6252414;28;20050;-77
2023/11/10 12:22:27;;;;;;;4.10;1.05;;;;;;;9.63;100.00;99401.53;6251970;28;20045;-77
2023/11/10 12:25:36;;;;;;;1.65;0.90;;;;;;;9.78;100.00;99404.84;6251301;28;20054;-76
2023/11/10 12:28:38;;;;;;;2.03;1.17;;;;;;;9.77;100.00;99397.94;6244697;28;20146;-76
2023/11/10 12:31:39;;;;;;;1.40;0.90;;;;;;;9.64;100.00;99403.22;6252190;28;20057;-75
2023/11/10 12:34:43;;;;;;;1.95;0.90;;;;;;;9.61;100.00;99419.16;6250621;28;20433;-76
2023/11/10 12:37:45;;;;;;;2.80;1.10;;;;;;;9.62;100.00;99416.41;6251876;28;20052;-75
2023/11/10 12:40:50;;;;;;;3.15;0.88;;;;;;;9.57;100.00;99422.94;6251743;28;20449;-76
2023/11/10 12:43:53;;;;;;;1.63;1.02;;;;;;;9.50;100.00;99426.97;6251837;28;20072;-76
2023/11/10 12:46:56;;;;;;;4.03;1.00;;;;;;;9.42;100.00;99422.25;6250556;28;20045;-75
2023/11/10 12:50:01;;;;;;;2.63;1.38;;;;;;;9.39;100.00;99420.66;6251624;28;20057;-77
2023/11/10 12:53:03;;;;;;;4.20;1.30;;;;;;;9.38;100.00;99423.41;6251537;28;20052;-76
2023/11/10 12:56:06;;;;;;;1.77;1.00;;;;;;;9.30;100.00;99420.47;6251429;28;20115;-76
2023/11/10 12:59:09;;;;;;;5.35;1.17;;;;;;;9.23;100.00;99424.47;6251648;28;20058;-76
2023/11/10 13:02:12;;;;;;;5.10;1.60;;;;;;;9.22;100.00;99423.63;6251072;28;20041;-77
2023/11/10 13:05:15;;;;;;;1.95;0.98;;;;;;;9.23;100.00;99411.38;6251171;28;20362;-77
2023/11/10 13:08:16;;;;;;;4.10;1.33;;;;;;;9.27;100.00;99412.84;6250233;28;20507;-77
2023/11/10 13:11:19;;;;;;;2.47;1.25;;;;;;;9.27;100.00;99404.97;6246342;28;20064;-77
2023/11/10 13:14:21;;;;;;;3.05;0.90;;;;;;;9.19;100.00;99410.72;6250767;28;20568;-76
2023/11/10 13:17:23;;;;;;;2.50;1.13;;;;;;;9.13;100.00;99411.16;6251352;28;20056;-77
2023/11/10 13:20:27;;;;;;;3.05;1.00;;;;;;;9.07;100.00;99398.47;6250765;28;20050;-77
2023/11/10 13:23:28;;;;;;;5.78;1.15;;;;;;;9.10;100.00;99401.72;6250799;28;20125;-77
2023/11/10 13:26:30;;;;;;;3.17;1.20;;;;;;;9.11;100.00;99399.94;6250963;28;20084;-76
2023/11/10 13:29:31;;;;;;;3.08;1.23;;;;;;;9.13;100.00;99400.69;6250911;28;20057;-76
2023/11/10 13:32:33;;;;;;;6.00;1.02;;;;;;;9.14;100.00;99405.81;6250644;28;20045;-76
2023/11/10 13:35:37;;;;;;;3.35;0.98;;;;;;;9.17;100.00;99406.53;6250767;28;20450;-74
2023/11/10 13:38:39;;;;;;;4.53;1.10;;;;;;;9.18;100.00;99408.22;6247825;28;20056;-73
2023/11/10 13:41:40;;;;;;;3.80;1.45;;;;;;;9.22;100.00;99402.66;6240819;28;20053;-72
2023/11/10 13:44:43;;;;;;;2.25;1.02;;;;;;;9.30;100.00;99402.09;6250310;28;20350;-72
2023/11/10 13:47:44;;;;;;;4.45;1.05;;;;;;;9.30;100.00;99396.88;6250530;28;20050;-72
2023/11/10 13:50:47;;;;;;;1.80;0.95;;;;;;;9.27;100.00;99403.19;6250761;28;20067;-73
2023/11/10 13:53:51;;;;;;;3.67;1.05;;;;;;;9.28;100.00;99402.22;6250206;28;20075;-72
2023/11/10 13:56:53;;;;;;;2.38;0.95;;;;;;;9.30;100.00;99410.81;6250679;28;20045;-72
2023/11/10 13:59:54;;;;;;;6.80;1.25;;;;;;;9.32;100.00;99408.94;6250368;28;20049;-72
2023/11/10 14:02:55;;;;;;;2.97;1.20;;;;;;;9.34;100.00;99395.72;6250088;28;20049;-72
2023/11/10 14:05:58;;;;;;;1.95;0.88;;;;;;;9.33;100.00;99409.78;6250577;28;20049;-72
2023/11/10 14:09:00;;;;;;;3.53;0.80;;;;;;;9.30;100.00;99399.50;6249895;28;20056;-73
2023/11/10 14:12:02;;;;;;;2.45;0.82;;;;;;;9.34;100.00;99399.16;6250149;28;20080;-71
2023/11/10 14:15:07;;;;;;;1.30;0.73;;;;;;;9.36;100.00;99397.28;6249854;28;20131;-70
2023/11/10 14:18:10;;;;;;;3.08;0.60;;;;;;;9.32;100.00;99397.63;6250346;28;20053;-71
2023/11/10 14:21:14;;;;;;;0.50;0.50;;;;;;;9.30;100.00;99396.88;6249961;28;20118;-71